Beddington, Maine
Current Conditions -  °F | °C
As of 1:35 AM on Monday 26 Jan 2015 (Local Time) from KBHB Reporting Station
Clear Clear  
Wind Chill: -4°   Ceiling: Unl
Heat Index:   Visibility: 10mi
Dew Point:   Wind: 8mph
Humidity: 67%   Direction: 290°WNW
Pressure: 30.03"   Gusts: NA
Location:  44.7916°N, 68.0073°W
Report Text: KBHB 260635Z 29007KT 10SM CLR M13/M18 A3003 RMK AO1
Loading
Personal Weather Stations






























Interactive Weather Map New forecast layout! Learn more

10-Day Weather Forecast

Advertisements
Track Severe Weather on mobile